sensor_id;sensor_type;location;lat;lon;timestamp;pressure;altitude;pressure_sealevel;temperature;humidity
11302;BME280;5706;50.650;13.380;2023-02-10T02:02:10;56433.59;;;-140.63;66.68
11302;BME280;5706;50.650;13.380;2023-02-10T02:04:43;56389.88;;;-140.63;66.18
11302;BME280;5706;50.650;13.380;2023-02-10T02:07:17;56403.78;;;-140.63;66.77
11302;BME280;5706;50.650;13.380;2023-02-10T02:09:48;56375.94;;;-140.63;65.40
11302;BME280;5706;50.650;13.380;2023-02-10T02:12:22;56407.75;;;-140.63;66.35
11302;BME280;5706;50.650;13.380;2023-02-10T02:15:02;56385.88;;;-140.63;66.65
11302;BME280;5706;50.650;13.380;2023-02-10T02:17:39;56399.81;;;-140.63;66.10
11302;BME280;5706;50.650;13.380;2023-02-10T02:23:48;56385.88;;;-140.63;66.53
11302;BME280;5706;50.650;13.380;2023-02-10T02:26:43;56435.59;;;-140.63;65.13
11302;BME280;5706;50.650;13.380;2023-02-10T02:29:38;56377.94;;;-140.63;65.95
11302;BME280;5706;50.650;13.380;2023-02-10T02:32:25;56405.78;;;-140.63;65.59
11302;BME280;5706;50.650;13.380;2023-02-10T02:34:59;56379.94;;;-140.63;65.54
11302;BME280;5706;50.650;13.380;2023-02-10T02:37:33;56371.97;;;-140.63;65.32
11302;BME280;5706;50.650;13.380;2023-02-10T02:40:04;56391.84;;;-140.63;66.27
11302;BME280;5706;50.650;13.380;2023-02-10T02:42:33;56373.97;;;-140.63;66.15
11302;BME280;5706;50.650;13.380;2023-02-10T02:45:03;56401.78;;;-140.63;64.79
11302;BME280;5706;50.650;13.380;2023-02-10T02:48:07;56401.78;;;-140.63;65.33
11302;BME280;5706;50.650;13.380;2023-02-10T02:50:56;56377.94;;;-140.63;65.85
11302;BME280;5706;50.650;13.380;2023-02-10T02:53:36;56395.84;;;-140.63;66.15
11302;BME280;5706;50.650;13.380;2023-02-10T02:56:17;56405.78;;;-140.63;66.08
11302;BME280;5706;50.650;13.380;2023-02-10T02:58:54;56348.13;;;-140.63;65.90
11302;BME280;5706;50.650;13.380;2023-02-10T03:01:34;56373.97;;;-140.63;65.88
11302;BME280;5706;50.650;13.380;2023-02-10T03:04:06;56366.00;;;-140.63;66.07
11302;BME280;5706;50.650;13.380;2023-02-10T03:06:34;56407.75;;;-140.63;65.73
11302;BME280;5706;50.650;13.380;2023-02-10T03:09:02;56385.88;;;-140.63;66.60
11302;BME280;5706;50.650;13.380;2023-02-10T03:11:29;56415.72;;;-140.63;66.00
11302;BME280;5706;50.650;13.380;2023-02-10T03:13:57;56405.78;;;-140.63;66.14
11302;BME280;5706;50.650;13.380;2023-02-10T03:16:25;56433.59;;;-140.63;66.07
11302;BME280;5706;50.650;13.380;2023-02-10T03:18:52;56346.13;;;-140.63;65.62
11302;BME280;5706;50.650;13.380;2023-02-10T03:21:21;56415.72;;;-140.63;65.45
11302;BME280;5706;50.650;13.380;2023-02-10T03:23:50;56377.94;;;-140.63;65.78
11302;BME280;5706;50.650;13.380;2023-02-10T03:26:18;56417.69;;;-140.63;65.45
11302;BME280;5706;50.650;13.380;2023-02-10T03:28:46;56366.00;;;-140.63;65.83
11302;BME280;5706;50.650;13.380;2023-02-10T03:31:13;56415.72;;;-140.63;65.93
11302;BME280;5706;50.650;13.380;2023-02-10T03:33:41;56415.72;;;-140.63;65.28
11302;BME280;5706;50.650;13.380;2023-02-10T03:36:09;56371.97;;;-140.63;65.40
11302;BME280;5706;50.650;13.380;2023-02-10T03:38:38;56373.97;;;-140.63;65.41
11302;BME280;5706;50.650;13.380;2023-02-10T03:41:06;56413.72;;;-140.63;64.85
11302;BME280;5706;50.650;13.380;2023-02-10T03:43:33;56383.91;;;-140.63;65.78
11302;BME280;5706;50.650;13.380;2023-02-10T03:46:01;56431.63;;;-140.63;65.29
11302;BME280;5706;50.650;13.380;2023-02-10T03:48:30;56383.91;;;-140.63;65.13
11302;BME280;5706;50.650;13.380;2023-02-10T03:50:59;56405.78;;;-140.63;65.38
11302;BME280;5706;50.650;13.380;2023-02-10T03:53:29;56387.88;;;-140.63;64.80
11302;BME280;5706;50.650;13.380;2023-02-10T03:55:59;56373.97;;;-140.63;64.74
11302;BME280;5706;50.650;13.380;2023-02-10T03:58:29;56405.78;;;-140.63;64.54
11302;BME280;5706;50.650;13.380;2023-02-10T04:00:56;56415.72;;;-140.63;65.50
11302;BME280;5706;50.650;13.380;2023-02-10T04:03:24;56401.78;;;-140.63;65.13
11302;BME280;5706;50.650;13.380;2023-02-10T04:05:52;56377.94;;;-140.63;64.58
11302;BME280;5706;50.650;13.380;2023-02-10T04:08:20;56387.88;;;-140.63;65.02
11302;BME280;5706;50.650;13.380;2023-02-10T04:10:48;56403.78;;;-140.63;65.24
11302;BME280;5706;50.650;13.380;2023-02-10T04:13:17;56391.84;;;-140.63;64.92
11302;BME280;5706;50.650;13.380;2023-02-10T04:15:45;56366.00;;;-140.63;65.17
11302;BME280;5706;50.650;13.380;2023-02-10T04:18:13;56393.84;;;-140.63;64.55
11302;BME280;5706;50.650;13.380;2023-02-10T04:20:41;56389.88;;;-140.63;65.16
11302;BME280;5706;50.650;13.380;2023-02-10T04:23:08;56383.91;;;-140.63;64.88
11302;BME280;5706;50.650;13.380;2023-02-10T04:25:36;56389.88;;;-140.63;65.25
11302;BME280;5706;50.650;13.380;2023-02-10T04:28:04;56381.91;;;-140.63;65.25
11302;BME280;5706;50.650;13.380;2023-02-10T04:30:33;56391.84;;;-140.63;65.22
11302;BME280;5706;50.650;13.380;2023-02-10T04:33:00;56383.91;;;-140.63;65.31
11302;BME280;5706;50.650;13.380;2023-02-10T04:35:29;56383.91;;;-140.63;64.92
11302;BME280;5706;50.650;13.380;2023-02-10T04:37:56;56415.72;;;-140.63;64.77
11302;BME280;5706;50.650;13.380;2023-02-10T04:40:24;56409.75;;;-140.63;65.15
11302;BME280;5706;50.650;13.380;2023-02-10T04:42:52;56395.84;;;-140.63;65.19
11302;BME280;5706;50.650;13.380;2023-02-10T04:45:19;56429.63;;;-140.63;64.44
11302;BME280;5706;50.650;13.380;2023-02-10T04:47:49;56433.59;;;-140.63;63.95
11302;BME280;5706;50.650;13.380;2023-02-10T04:50:16;56360.03;;;-140.63;63.28
11302;BME280;5706;50.650;13.380;2023-02-10T04:52:44;56368.00;;;-140.63;63.34
11302;BME280;5706;50.650;13.380;2023-02-10T04:55:12;56407.75;;;-140.63;63.07
11302;BME280;5706;50.650;13.380;2023-02-10T04:57:39;56399.81;;;-140.63;63.92
11302;BME280;5706;50.650;13.380;2023-02-10T05:00:08;56387.88;;;-140.63;63.06
11302;BME280;5706;50.650;13.380;2023-02-10T05:02:37;56419.69;;;-140.63;62.96
11302;BME280;5706;50.650;13.380;2023-02-10T05:05:07;56427.66;;;-140.63;63.93
11302;BME280;5706;50.650;13.380;2023-02-10T05:07:38;56373.97;;;-140.63;64.44
11302;BME280;5706;50.650;13.380;2023-02-10T05:10:06;56395.84;;;-140.63;64.07
11302;BME280;5706;50.650;13.380;2023-02-10T05:12:34;56369.97;;;-140.63;64.52
11302;BME280;5706;50.650;13.380;2023-02-10T05:15:02;56407.75;;;-140.63;64.39
11302;BME280;5706;50.650;13.380;2023-02-10T05:17:30;56387.88;;;-140.63;64.26
11302;BME280;5706;50.650;13.380;2023-02-10T05:19:58;56373.97;;;-140.63;64.51
11302;BME280;5706;50.650;13.380;2023-02-10T05:22:27;56427.66;;;-140.63;64.48
11302;BME280;5706;50.650;13.380;2023-02-10T05:24:55;56401.78;;;-140.63;63.24
11302;BME280;5706;50.650;13.380;2023-02-10T05:27:23;56397.81;;;-140.63;63.31
11302;BME280;5706;50.650;13.380;2023-02-10T05:29:51;56407.75;;;-140.63;62.21
11302;BME280;5706;50.650;13.380;2023-02-10T05:32:19;56368.00;;;-140.63;62.40
11302;BME280;5706;50.650;13.380;2023-02-10T05:34:46;56366.00;;;-140.63;62.64
11302;BME280;5706;50.650;13.380;2023-02-10T05:37:14;56375.94;;;-140.63;62.89
11302;BME280;5706;50.650;13.380;2023-02-10T05:39:43;56391.84;;;-140.63;62.94
11302;BME280;5706;50.650;13.380;2023-02-10T05:42:11;56405.78;;;-140.63;62.68
11302;BME280;5706;50.650;13.380;2023-02-10T05:44:38;56401.78;;;-140.63;63.34
11302;BME280;5706;50.650;13.380;2023-02-10T05:47:06;56385.88;;;-140.63;63.12
11302;BME280;5706;50.650;13.380;2023-02-10T05:49:34;56360.03;;;-140.63;62.59
11302;BME280;5706;50.650;13.380;2023-02-10T05:52:01;56405.78;;;-140.63;63.16
11302;BME280;5706;50.650;13.380;2023-02-10T05:54:29;56389.88;;;-140.63;62.34
11302;BME280;5706;50.650;13.380;2023-02-10T05:56:58;56435.59;;;-140.63;62.98
11302;BME280;5706;50.650;13.380;2023-02-10T05:59:26;56397.81;;;-140.63;62.98
11302;BME280;5706;50.650;13.380;2023-02-10T06:01:54;56381.91;;;-140.63;62.69
11302;BME280;5706;50.650;13.380;2023-02-10T06:04:21;56377.94;;;-140.63;62.59
11302;BME280;5706;50.650;13.380;2023-02-10T06:06:49;56377.94;;;-140.63;62.44
11302;BME280;5706;50.650;13.380;2023-02-10T06:09:17;56405.78;;;-140.63;62.59
11302;BME280;5706;50.650;13.380;2023-02-10T06:11:48;56383.91;;;-140.63;62.99
11302;BME280;5706;50.650;13.380;2023-02-10T06:14:17;56377.94;;;-140.63;62.74
11302;BME280;5706;50.650;13.380;2023-02-10T06:16:45;56383.91;;;-140.63;63.99
11302;BME280;5706;50.650;13.380;2023-02-10T06:19:13;56389.88;;;-140.63;62.81
11302;BME280;5706;50.650;13.380;2023-02-10T06:21:40;56399.81;;;-140.63;63.26
11302;BME280;5706;50.650;13.380;2023-02-10T06:24:08;56413.72;;;-140.63;63.36
11302;BME280;5706;50.650;13.380;2023-02-10T06:26:36;56385.88;;;-140.63;63.60
11302;BME280;5706;50.650;13.380;2023-02-10T06:29:04;56401.78;;;-140.63;62.92
11302;BME280;5706;50.650;13.380;2023-02-10T06:31:33;56403.78;;;-140.63;62.38
11302;BME280;5706;50.650;13.380;2023-02-10T06:34:01;56419.69;;;-140.63;63.07
11302;BME280;5706;50.650;13.380;2023-02-10T06:36:29;56417.69;;;-140.63;62.78
11302;BME280;5706;50.650;13.380;2023-02-10T06:38:57;56369.97;;;-140.63;63.13
11302;BME280;5706;50.650;13.380;2023-02-10T06:41:25;56379.94;;;-140.63;62.95
11302;BME280;5706;50.650;13.380;2023-02-10T06:43:52;56391.84;;;-140.63;62.98
11302;BME280;5706;50.650;13.380;2023-02-10T06:46:20;56423.66;;;-140.63;63.14
11302;BME280;5706;50.650;13.380;2023-02-10T06:48:49;56368.00;;;-140.63;63.74
11302;BME280;5706;50.650;13.380;2023-02-10T06:51:17;56423.66;;;-140.63;63.17
11302;BME280;5706;50.650;13.380;2023-02-10T06:53:45;56385.88;;;-140.63;63.57
11302;BME280;5706;50.650;13.380;2023-02-10T06:56:12;56403.78;;;-140.63;63.98
11302;BME280;5706;50.650;13.380;2023-02-10T06:58:40;56399.81;;;-140.63;63.76
11302;BME280;5706;50.650;13.380;2023-02-10T07:01:08;56383.91;;;-140.63;63.84
11302;BME280;5706;50.650;13.380;2023-02-10T07:03:37;56431.63;;;-140.63;62.90
11302;BME280;5706;50.650;13.380;2023-02-10T07:06:06;56364.03;;;-140.63;63.04
11302;BME280;5706;50.650;13.380;2023-02-10T07:08:34;56411.75;;;-140.63;62.90
11302;BME280;5706;50.650;13.380;2023-02-10T07:11:01;56377.94;;;-140.63;63.77
11302;BME280;5706;50.650;13.380;2023-02-10T07:13:29;56364.03;;;-140.63;63.24
11302;BME280;5706;50.650;13.380;2023-02-10T07:15:57;56427.66;;;-140.63;63.54
11302;BME280;5706;50.650;13.380;2023-02-10T07:18:25;56419.69;;;-140.63;63.19
11302;BME280;5706;50.650;13.380;2023-02-10T07:20:55;56401.78;;;-140.63;63.64
11302;BME280;5706;50.650;13.380;2023-02-10T07:23:24;56391.84;;;-140.63;63.27
11302;BME280;5706;50.650;13.380;2023-02-10T07:25:52;56417.69;;;-140.63;63.40
11302;BME280;5706;50.650;13.380;2023-02-10T07:28:19;56431.63;;;-140.63;62.75
11302;BME280;5706;50.650;13.380;2023-02-10T07:30:47;56403.78;;;-140.63;62.94
11302;BME280;5706;50.650;13.380;2023-02-10T07:33:15;56375.94;;;-140.63;63.65
11302;BME280;5706;50.650;13.380;2023-02-10T07:35:42;56399.81;;;-140.63;63.42
11302;BME280;5706;50.650;13.380;2023-02-10T07:38:10;56346.13;;;-140.63;62.64
11302;BME280;5706;50.650;13.380;2023-02-10T07:40:39;56381.91;;;-140.63;62.83
11302;BME280;5706;50.650;13.380;2023-02-10T07:43:07;56393.84;;;-140.63;63.35
11302;BME280;5706;50.650;13.380;2023-02-10T07:45:34;56391.84;;;-140.63;62.87
11302;BME280;5706;50.650;13.380;2023-02-10T07:48:02;56369.97;;;-140.63;62.65
11302;BME280;5706;50.650;13.380;2023-02-10T07:50:30;56393.84;;;-140.63;63.05
11302;BME280;5706;50.650;13.380;2023-02-10T07:52:58;56397.81;;;-140.63;62.56
11302;BME280;5706;50.650;13.380;2023-02-10T07:55:25;56377.94;;;-140.63;63.72
11302;BME280;5706;50.650;13.380;2023-02-10T07:57:55;56381.91;;;-140.63;63.44
11302;BME280;5706;50.650;13.380;2023-02-10T08:00:22;56389.88;;;-140.63;62.89
11302;BME280;5706;50.650;13.380;2023-02-10T08:02:50;56389.88;;;-140.63;62.98
11302;BME280;5706;50.650;13.380;2023-02-10T08:05:18;56403.78;;;-140.63;62.28
11302;BME280;5706;50.650;13.380;2023-02-10T08:07:46;56427.66;;;-140.63;62.50
11302;BME280;5706;50.650;13.380;2023-02-10T08:10:17;56407.75;;;-140.63;62.94
11302;BME280;5706;50.650;13.380;2023-02-10T08:12:48;56381.91;;;-140.63;63.25
11302;BME280;5706;50.650;13.380;2023-02-10T08:15:18;56415.72;;;-140.63;63.35
11302;BME280;5706;50.650;13.380;2023-02-10T08:17:47;56373.97;;;-140.63;63.21
11302;BME280;5706;50.650;13.380;2023-02-10T08:20:15;56417.69;;;-140.63;63.39
11302;BME280;5706;50.650;13.380;2023-02-10T08:22:43;56439.56;;;-140.63;63.50
11302;BME280;5706;50.650;13.380;2023-02-10T08:25:10;56401.78;;;-140.63;63.83
11302;BME280;5706;50.650;13.380;2023-02-10T08:27:41;56381.91;;;-140.63;64.16
11302;BME280;5706;50.650;13.380;2023-02-10T08:30:10;56419.69;;;-140.63;63.82
11302;BME280;5706;50.650;13.380;2023-02-10T08:32:47;56399.81;;;-140.63;63.27
11302;BME280;5706;50.650;13.380;2023-02-10T08:35:15;56401.78;;;-140.63;62.92
11302;BME280;5706;50.650;13.380;2023-02-10T08:37:42;56377.94;;;-140.63;63.23
11302;BME280;5706;50.650;13.380;2023-02-10T08:40:10;56397.81;;;-140.63;63.39
11302;BME280;5706;50.650;13.380;2023-02-10T08:42:38;56369.97;;;-140.63;62.84
11302;BME280;5706;50.650;13.380;2023-02-10T08:45:06;56441.56;;;-140.63;63.12
11302;BME280;5706;50.650;13.380;2023-02-10T08:47:34;56385.88;;;-140.63;62.93
11302;BME280;5706;50.650;13.380;2023-02-10T08:50:05;56393.84;;;-140.63;62.94
11302;BME280;5706;50.650;13.380;2023-02-10T08:52:33;56403.78;;;-140.63;63.37
11302;BME280;5706;50.650;13.380;2023-02-10T08:55:01;56429.63;;;-140.63;63.07
11302;BME280;5706;50.650;13.380;2023-02-10T08:57:29;56366.00;;;-140.63;62.74
11302;BME280;5706;50.650;13.380;2023-02-10T08:59:57;56397.81;;;-140.63;62.78
11302;BME280;5706;50.650;13.380;2023-02-10T09:02:25;56425.66;;;-140.63;63.47
11302;BME280;5706;50.650;13.380;2023-02-10T09:04:52;56395.84;;;-140.63;62.54
11302;BME280;5706;50.650;13.380;2023-02-10T09:07:21;56401.78;;;-140.63;63.14
11302;BME280;5706;50.650;13.380;2023-02-10T09:09:49;56415.72;;;-140.63;62.46
11302;BME280;5706;50.650;13.380;2023-02-10T09:12:17;56411.75;;;-140.63;62.95
11302;BME280;5706;50.650;13.380;2023-02-10T09:14:44;56387.88;;;-140.63;63.03
11302;BME280;5706;50.650;13.380;2023-02-10T09:17:12;56433.59;;;-140.63;62.89
11302;BME280;5706;50.650;13.380;2023-02-10T09:19:40;56417.69;;;-140.63;63.31
11302;BME280;5706;50.650;13.380;2023-02-10T09:22:07;56405.78;;;-140.63;63.23
11302;BME280;5706;50.650;13.380;2023-02-10T09:24:36;56405.78;;;-140.63;62.54
11302;BME280;5706;50.650;13.380;2023-02-10T09:27:04;56368.00;;;-140.63;62.35
11302;BME280;5706;50.650;13.380;2023-02-10T09:29:32;56391.84;;;-140.63;62.71
11302;BME280;5706;50.650;13.380;2023-02-10T09:31:59;56381.91;;;-140.63;62.12
11302;BME280;5706;50.650;13.380;2023-02-10T09:34:27;56399.81;;;-140.63;62.90
11302;BME280;5706;50.650;13.380;2023-02-10T09:36:57;56371.97;;;-140.63;64.02
11302;BME280;5706;50.650;13.380;2023-02-10T09:39:29;56368.00;;;-140.63;62.83
11302;BME280;5706;50.650;13.380;2023-02-10T09:42:06;56391.84;;;-140.63;62.27
11302;BME280;5706;50.650;13.380;2023-02-10T09:44:41;56373.97;;;-140.63;62.11
11302;BME280;5706;50.650;13.380;2023-02-10T09:47:43;56381.91;;;-140.63;62.15
11302;BME280;5706;50.650;13.380;2023-02-10T09:50:29;56391.84;;;-140.63;62.44
11302;BME280;5706;50.650;13.380;2023-02-10T09:53:19;56395.84;;;-140.63;63.18
11302;BME280;5706;50.650;13.380;2023-02-10T09:55:49;56379.94;;;-140.63;63.98
11302;BME280;5706;50.650;13.380;2023-02-10T09:58:28;56439.56;;;-140.63;63.76
11302;BME280;5706;50.650;13.380;2023-02-10T10:01:03;56371.97;;;-140.63;64.25
11302;BME280;5706;50.650;13.380;2023-02-10T10:03:45;56383.91;;;-140.63;63.87
11302;BME280;5706;50.650;13.380;2023-02-10T10:06:21;56441.56;;;-140.63;64.45
11302;BME280;5706;50.650;13.380;2023-02-10T10:09:01;56413.72;;;-140.63;64.57
11302;BME280;5706;50.650;13.380;2023-02-10T10:11:41;56383.91;;;-140.63;64.93
11302;BME280;5706;50.650;13.380;2023-02-10T10:14:17;56385.88;;;-140.63;64.66
11302;BME280;5706;50.650;13.380;2023-02-10T10:17:01;56409.75;;;-140.63;64.61
11302;BME280;5706;50.650;13.380;2023-02-10T10:19:56;56417.69;;;-140.63;64.60
11302;BME280;5706;50.650;13.380;2023-02-10T10:22:47;56391.84;;;-140.63;64.70
11302;BME280;5706;50.650;13.380;2023-02-10T10:25:57;56391.84;;;-140.63;65.30
11302;BME280;5706;50.650;13.380;2023-02-10T19:44:34;56413.72;;;-140.63;69.24
11302;BME280;5706;50.650;13.380;2023-02-10T19:47:04;56429.63;;;-140.63;69.04
11302;BME280;5706;50.650;13.380;2023-02-10T19:49:50;56415.72;;;-140.63;68.59
11302;BME280;5706;50.650;13.380;2023-02-10T19:52:18;56397.81;;;-140.63;68.80
11302;BME280;5706;50.650;13.380;2023-02-10T19:54:48;56411.75;;;-140.63;68.94
11302;BME280;5706;50.650;13.380;2023-02-10T19:57:17;56413.72;;;-140.63;67.83
11302;BME280;5706;50.650;13.380;2023-02-10T19:59:47;56429.63;;;-140.63;68.51
11302;BME280;5706;50.650;13.380;2023-02-10T20:02:15;56463.44;;;-140.63;68.69
11302;BME280;5706;50.650;13.380;2023-02-10T20:04:44;56417.69;;;-140.63;68.67
11302;BME280;5706;50.650;13.380;2023-02-10T20:07:13;56463.44;;;-140.63;68.56
11302;BME280;5706;50.650;13.380;2023-02-10T20:09:41;56455.47;;;-140.63;68.58
11302;BME280;5706;50.650;13.380;2023-02-10T20:12:09;56451.50;;;-140.63;68.88
11302;BME280;5706;50.650;13.380;2023-02-10T20:14:39;56425.66;;;-140.63;68.69
11302;BME280;5706;50.650;13.380;2023-02-10T20:17:07;56415.72;;;-140.63;69.22
11302;BME280;5706;50.650;13.380;2023-02-10T20:19:35;56421.69;;;-140.63;69.33
11302;BME280;5706;50.650;13.380;2023-02-10T20:22:03;56405.78;;;-140.63;68.33
11302;BME280;5706;50.650;13.380;2023-02-10T20:24:31;56409.75;;;-140.63;68.86
11302;BME280;5706;50.650;13.380;2023-02-10T20:27:34;56429.63;;;-140.63;68.87
